KROW/ROW METAR and TAF weather

Enter ICAO airport designator
Station Type Date Time Source
KROW METAR 2019/04/25 15:51 UTC NOAA

KROW 251551Z 06005KT 10SM CLR 19/10 A3001 RMK AO2 SLP114 T01940100


Station Type Date Time Source
KROW Decoded METAR 2019/04/25 15:51 UTC NOAA

ROSWELL INDUSTRIAL AIR CENTR, NM, United States (KROW) 33-18N 104-32W 1112M
Apr 25, 2019 - 11:51 AM EDT / 2019.04.25 1551 UTC
Wind: from the ENE (060 degrees) at 6 MPH (5 KT):0
Visibility: 10 mile(s):0
Sky conditions: clear
Temperature: 66.9 F (19.4 C)
Dew Point: 50.0 F (10.0 C)
Relative Humidity: 54%
Pressure (altimeter): 30.01 in. Hg (1016 hPa)
ob: KROW 251551Z 06005KT 10SM CLR 19/10 A3001 RMK AO2 SLP114 T01940100
cycle: 16

Station Type Date Time Source
KROW TAF 2019/04/25 12:42 UTC NOAA

TAF KROW 251139Z 2512/2612 VRB06KT P6SM SKC
FM251700 01008KT P6SM SKC
FM252100 06008KT P6SM SCT120
FM260100 09010KT P6SM SCT120

Example: see airport list